createdAt,value
2022-10-29T00:00:44.057Z,100.00
2022-10-29T00:03:10.578Z,100.00
2022-10-29T00:05:37.078Z,100.00
2022-10-29T00:08:03.762Z,100.00
2022-10-29T00:10:30.459Z,100.00
2022-10-29T00:12:59.864Z,100.00
2022-10-29T00:15:26.286Z,100.00
2022-10-29T00:17:52.928Z,100.00
2022-10-29T00:20:20.952Z,100.00
2022-10-29T00:22:47.616Z,100.00
2022-10-29T00:25:14.037Z,100.00
2022-10-29T00:27:40.480Z,100.00
2022-10-29T00:30:07.258Z,100.00
2022-10-29T00:32:33.664Z,100.00
2022-10-29T00:35:00.090Z,100.00
2022-10-29T00:37:26.516Z,100.00
2022-10-29T00:39:52.928Z,100.00
2022-10-29T00:42:19.335Z,100.00
2022-10-29T00:44:45.770Z,100.00
2022-10-29T00:47:38.482Z,100.00
2022-10-29T00:50:08.094Z,100.00
2022-10-29T00:52:37.080Z,100.00
2022-10-29T00:55:05.434Z,100.00
2022-10-29T00:57:36.612Z,100.00
2022-10-29T01:00:03.741Z,100.00
2022-10-29T01:02:31.654Z,100.00
2022-10-29T01:04:58.531Z,100.00
2022-10-29T01:07:24.926Z,100.00
2022-10-29T01:09:51.413Z,100.00
2022-10-29T01:12:17.868Z,100.00
2022-10-29T01:14:44.275Z,100.00
2022-10-29T01:17:23.076Z,100.00
2022-10-29T01:20:08.417Z,100.00
2022-10-29T01:22:38.452Z,100.00
2022-10-29T01:25:23.788Z,100.00
2022-10-29T01:27:50.203Z,100.00
2022-10-29T01:30:20.339Z,100.00
2022-10-29T01:32:46.757Z,100.00
2022-10-29T01:35:34.775Z,100.00
2022-10-29T01:38:04.215Z,100.00
2022-10-29T01:40:35.004Z,100.00
2022-10-29T01:43:13.269Z,100.00
2022-10-29T01:45:52.756Z,100.00
2022-10-29T01:48:21.853Z,100.00
2022-10-29T01:50:51.062Z,100.00
2022-10-29T01:53:18.025Z,100.00
2022-10-29T01:55:44.561Z,100.00
2022-10-29T01:58:12.219Z,100.00
2022-10-29T02:00:58.994Z,100.00
2022-10-29T02:03:34.495Z,100.00
2022-10-29T02:06:15.080Z,100.00
2022-10-29T02:08:56.920Z,100.00
2022-10-29T02:11:35.673Z,100.00
2022-10-29T02:14:07.754Z,100.00
2022-10-29T02:16:34.389Z,100.00
2022-10-29T02:19:00.988Z,100.00
2022-10-29T02:21:27.453Z,100.00
2022-10-29T02:23:53.930Z,100.00
2022-10-29T02:26:21.805Z,100.00
2022-10-29T02:28:48.311Z,100.00
2022-10-29T02:31:14.728Z,100.00
2022-10-29T02:33:41.254Z,100.00
2022-10-29T02:36:08.043Z,100.00
2022-10-29T02:38:34.495Z,100.00
2022-10-29T02:41:00.907Z,100.00
2022-10-29T02:43:27.344Z,100.00
2022-10-29T02:46:13.166Z,100.00
2022-10-29T02:48:39.597Z,100.00
2022-10-29T02:51:06.260Z,100.00
2022-10-29T02:53:32.693Z,100.00
2022-10-29T02:55:59.125Z,100.00
2022-10-29T02:58:25.679Z,100.00
2022-10-29T03:00:52.798Z,100.00
2022-10-29T03:03:19.618Z,100.00
2022-10-29T03:05:48.973Z,100.00
2022-10-29T03:08:15.997Z,100.00
2022-10-29T03:10:42.423Z,100.00
2022-10-29T03:13:08.903Z,100.00
2022-10-29T03:15:35.584Z,100.00
2022-10-29T03:18:02.336Z,100.00
2022-10-29T03:20:28.775Z,100.00
2022-10-29T03:22:55.180Z,100.00
2022-10-29T03:25:21.596Z,100.00
2022-10-29T03:27:48.331Z,100.00
2022-10-29T03:30:15.805Z,100.00
2022-10-29T03:32:43.051Z,100.00
2022-10-29T03:35:10.393Z,100.00
2022-10-29T03:37:37.152Z,100.00
2022-10-29T03:40:04.037Z,100.00
2022-10-29T03:42:33.450Z,100.00
2022-10-29T03:45:00.400Z,100.00
2022-10-29T03:47:27.304Z,100.00
2022-10-29T03:49:54.044Z,100.00
2022-10-29T03:52:20.592Z,100.00
2022-10-29T03:54:47.124Z,100.00
2022-10-29T03:57:13.562Z,100.00
2022-10-29T03:59:39.973Z,100.00
2022-10-29T04:02:06.508Z,100.00
2022-10-29T04:04:33.051Z,100.00
2022-10-29T04:06:59.460Z,100.00
2022-10-29T04:09:25.895Z,100.00
2022-10-29T04:11:52.312Z,100.00
2022-10-29T04:14:18.734Z,100.00
2022-10-29T04:16:45.143Z,100.00
2022-10-29T04:19:11.629Z,100.00
2022-10-29T04:29:57.320Z,100.00
2022-10-29T04:32:23.794Z,100.00
2022-10-29T04:34:50.192Z,100.00
2022-10-29T04:37:16.591Z,100.00
2022-10-29T04:39:43.000Z,100.00
2022-10-29T04:42:09.411Z,100.00
2022-10-29T04:44:36.037Z,100.00
2022-10-29T04:47:02.520Z,100.00
2022-10-29T04:49:29.117Z,100.00
2022-10-29T04:51:55.575Z,100.00
2022-10-29T04:54:22.000Z,100.00
2022-10-29T04:56:48.407Z,100.00
2022-10-29T04:59:14.819Z,100.00
2022-10-29T05:01:41.337Z,100.00
2022-10-29T05:04:07.845Z,100.00
2022-10-29T05:06:34.310Z,100.00
2022-10-29T05:09:00.716Z,100.00
2022-10-29T05:11:27.160Z,100.00
2022-10-29T05:13:53.619Z,100.00
2022-10-29T05:16:20.034Z,100.00
2022-10-29T05:18:46.509Z,100.00
2022-10-29T05:21:13.012Z,100.00
2022-10-29T05:23:39.661Z,100.00
2022-10-29T05:26:06.125Z,100.00
2022-10-29T05:28:32.549Z,100.00
2022-10-29T05:31:00.879Z,100.00
2022-10-29T05:33:27.316Z,100.00
2022-10-29T05:35:53.731Z,100.00
2022-10-29T05:38:20.188Z,100.00
2022-10-29T05:40:46.646Z,100.00
2022-10-29T05:43:14.008Z,100.00
2022-10-29T05:45:41.056Z,100.00
2022-10-29T05:48:07.743Z,100.00
2022-10-29T05:50:34.595Z,100.00
2022-10-29T05:53:05.237Z,100.00
2022-10-29T05:55:32.604Z,100.00
2022-10-29T05:58:00.048Z,100.00
2022-10-29T06:00:28.026Z,100.00
2022-10-29T06:02:55.419Z,100.00
2022-10-29T06:05:22.388Z,100.00
2022-10-29T06:07:58.460Z,100.00
2022-10-29T06:10:25.909Z,100.00
2022-10-29T06:12:52.771Z,100.00
2022-10-29T06:15:19.317Z,100.00
2022-10-29T06:17:46.117Z,100.00
2022-10-29T06:20:13.773Z,100.00
2022-10-29T06:22:40.472Z,100.00
2022-10-29T06:25:07.204Z,100.00
2022-10-29T06:27:33.713Z,100.00
2022-10-29T06:30:00.171Z,100.00
2022-10-29T06:32:26.692Z,100.00
2022-10-29T06:34:53.165Z,100.00
2022-10-29T06:37:19.576Z,100.00
2022-10-29T06:39:46.044Z,100.00
2022-10-29T06:42:12.440Z,100.00
2022-10-29T06:44:38.862Z,100.00
2022-10-29T06:47:05.797Z,100.00
2022-10-29T06:49:32.205Z,100.00
2022-10-29T06:51:58.607Z,100.00
2022-10-29T06:54:25.081Z,100.00
2022-10-29T06:56:51.537Z,100.00
2022-10-29T06:59:17.934Z,100.00
2022-10-29T07:01:46.496Z,100.00
2022-10-29T07:04:13.110Z,100.00
2022-10-29T07:06:39.586Z,100.00
2022-10-29T07:09:06.052Z,100.00
2022-10-29T07:11:32.448Z,100.00
2022-10-29T07:13:58.900Z,100.00
2022-10-29T07:16:25.309Z,100.00
2022-10-29T07:18:52.803Z,100.00
2022-10-29T07:21:19.220Z,100.00
2022-10-29T07:23:45.649Z,100.00
2022-10-29T07:26:12.080Z,100.00
2022-10-29T07:28:38.519Z,100.00
2022-10-29T07:31:05.036Z,100.00
2022-10-29T07:33:31.580Z,100.00
2022-10-29T07:35:59.064Z,100.00
2022-10-29T07:38:25.696Z,100.00
2022-10-29T07:40:52.754Z,100.00
2022-10-29T07:43:20.088Z,100.00
2022-10-29T07:45:49.754Z,100.00
2022-10-29T07:48:16.675Z,100.00
2022-10-29T07:50:43.168Z,100.00
2022-10-29T07:53:10.140Z,100.00
2022-10-29T07:55:36.611Z,100.00
2022-10-29T07:58:05.662Z,100.00
2022-10-29T08:00:33.498Z,100.00
2022-10-29T08:03:00.049Z,100.00
2022-10-29T08:05:26.854Z,100.00
2022-10-29T08:07:54.466Z,100.00
2022-10-29T08:10:21.847Z,100.00
2022-10-29T08:12:52.175Z,100.00
2022-10-29T08:15:19.093Z,100.00
2022-10-29T08:17:46.025Z,100.00
2022-10-29T08:20:12.763Z,100.00
2022-10-29T08:22:39.337Z,100.00
2022-10-29T08:25:05.913Z,100.00
2022-10-29T08:27:32.392Z,100.00
2022-10-29T08:29:58.821Z,100.00
2022-10-29T08:32:25.256Z,100.00
2022-10-29T08:34:51.748Z,100.00
2022-10-29T08:37:18.360Z,100.00
2022-10-29T08:39:44.789Z,100.00
2022-10-29T08:42:14.627Z,100.00
2022-10-29T08:45:02.585Z,100.00
2022-10-29T08:47:32.278Z,100.00
2022-10-29T08:50:14.348Z,100.00
2022-10-29T08:52:52.889Z,100.00
2022-10-29T08:55:36.456Z,95.21
2022-10-29T08:58:27.833Z,90.76
2022-10-29T09:00:56.324Z,87.54
2022-10-29T09:03:24.441Z,87.45
2022-10-29T09:06:03.137Z,84.39
2022-10-29T09:08:29.525Z,83.56
2022-10-29T09:10:57.216Z,80.11
2022-10-29T09:13:29.395Z,79.35
2022-10-29T09:16:03.544Z,78.15
2022-10-29T09:18:38.870Z,73.35
2022-10-29T09:21:12.001Z,75.87
2022-10-29T09:23:55.827Z,79.55
2022-10-29T09:26:22.205Z,75.09
2022-10-29T09:29:03.917Z,75.53
2022-10-29T09:31:48.927Z,72.38
2022-10-29T09:34:19.072Z,68.34
2022-10-29T09:36:46.615Z,67.09
2022-10-29T09:39:14.709Z,70.83
2022-10-29T09:41:41.268Z,70.67
2022-10-29T09:44:16.551Z,67.05
2022-10-29T09:46:43.035Z,71.46
2022-10-29T09:49:12.472Z,69.73
2022-10-29T09:52:18.831Z,67.43
2022-10-29T09:54:46.081Z,61.88
2022-10-29T09:57:17.567Z,65.88
2022-10-29T09:59:49.951Z,62.51
2022-10-29T10:02:36.225Z,63.63
2022-10-29T10:05:26.260Z,61.04
2022-10-29T10:08:12.207Z,64.18
2022-10-29T10:10:52.380Z,60.45
2022-10-29T10:13:21.768Z,62.62
2022-10-29T10:15:55.851Z,58.91
2022-10-29T10:18:23.956Z,61.17
2022-10-29T10:21:07.166Z,56.74
2022-10-29T10:23:44.770Z,52.83
2022-10-29T10:26:26.980Z,52.86
2022-10-29T10:29:05.315Z,49.96
2022-10-29T10:31:31.767Z,52.10
2022-10-29T10:33:58.176Z,51.77
2022-10-29T10:36:25.821Z,50.30
2022-10-29T10:38:56.795Z,51.96
2022-10-29T10:41:35.193Z,51.15
2022-10-29T10:44:03.515Z,49.36
2022-10-29T10:46:33.947Z,48.34
2022-10-29T10:49:06.591Z,46.65
2022-10-29T10:51:34.445Z,46.33
2022-10-29T10:54:03.364Z,47.12
2022-10-29T10:56:30.055Z,48.62
2022-10-29T10:59:03.261Z,49.65
2022-10-29T11:01:50.652Z,47.74
2022-10-29T11:04:33.376Z,46.30
2022-10-29T11:07:02.833Z,47.54
2022-10-29T11:09:50.822Z,45.17
2022-10-29T11:12:35.902Z,47.05
2022-10-29T11:15:10.820Z,46.19
2022-10-29T11:17:40.469Z,46.31
2022-10-29T11:20:14.933Z,46.45
2022-10-29T11:23:00.318Z,46.83
2022-10-29T11:25:31.361Z,46.20
2022-10-29T11:28:09.730Z,48.63
2022-10-29T11:30:40.418Z,49.66
2022-10-29T11:35:51.485Z,46.27
2022-10-29T11:38:41.320Z,48.87
2022-10-29T11:41:17.493Z,45.59
2022-10-29T11:43:43.989Z,46.19
2022-10-29T11:46:28.924Z,44.84
2022-10-29T11:49:10.593Z,45.30
2022-10-29T11:51:49.148Z,45.36
2022-10-29T11:54:34.497Z,44.03
2022-10-29T11:57:24.261Z,45.63
2022-10-29T12:00:08.649Z,41.93
2022-10-29T12:02:51.780Z,42.96
2022-10-29T12:05:25.401Z,42.25
2022-10-29T12:08:10.620Z,41.95
2022-10-29T12:10:47.732Z,40.71
2022-10-29T12:13:14.194Z,41.92
2022-10-29T12:16:03.573Z,41.92
2022-10-29T12:18:41.922Z,41.26
2022-10-29T12:21:11.167Z,42.59
2022-10-29T12:23:40.793Z,41.95
2022-10-29T12:26:21.651Z,45.79
2022-10-29T12:29:02.694Z,42.86
2022-10-29T12:31:38.007Z,43.24
2022-10-29T12:34:07.548Z,43.41
2022-10-29T12:36:37.887Z,45.43
2022-10-29T12:39:06.109Z,43.85
2022-10-29T12:41:35.324Z,45.84
2022-10-29T12:44:12.870Z,46.87
2022-10-29T12:46:39.260Z,44.93
2022-10-29T12:49:13.700Z,47.22
2022-10-29T12:52:09.591Z,47.91
2022-10-29T12:54:46.484Z,44.72
2022-10-29T12:57:12.873Z,44.44
2022-10-29T12:59:40.276Z,43.48
2022-10-29T13:02:19.062Z,44.86
2022-10-29T13:05:04.315Z,44.11
2022-10-29T13:07:30.796Z,47.69
2022-10-29T13:10:16.091Z,44.28
2022-10-29T13:13:08.514Z,45.77
2022-10-29T13:15:43.246Z,49.43
2022-10-29T13:18:12.651Z,49.47
2022-10-29T13:20:40.746Z,51.37
2022-10-29T13:23:29.031Z,51.47
2022-10-29T13:25:56.099Z,51.22
2022-10-29T13:28:22.504Z,50.39
2022-10-29T13:30:50.115Z,53.27
2022-10-29T13:33:28.719Z,53.17
2022-10-29T13:35:55.120Z,51.96
2022-10-29T13:38:46.947Z,50.56
2022-10-29T13:41:39.796Z,50.38
2022-10-29T13:44:22.992Z,51.69
2022-10-29T13:47:01.107Z,51.80
2022-10-29T13:49:27.784Z,52.56
2022-10-29T13:52:09.481Z,52.51
2022-10-29T13:54:49.179Z,52.46
2022-10-29T13:57:19.307Z,56.09
2022-10-29T13:59:50.132Z,57.25
2022-10-29T14:02:36.818Z,57.30
2022-10-29T14:05:15.646Z,59.36
2022-10-29T14:08:00.940Z,56.53
2022-10-29T14:10:39.626Z,56.15
2022-10-29T14:13:06.171Z,58.20
2022-10-29T14:15:34.591Z,58.24
2022-10-29T14:18:17.018Z,59.47
2022-10-29T14:20:53.667Z,54.94
2022-10-29T14:23:20.119Z,52.93
2022-10-29T14:25:50.628Z,53.81
2022-10-29T14:28:19.906Z,53.52
2022-10-29T14:30:47.537Z,54.00
2022-10-29T14:33:17.890Z,54.62
2022-10-29T14:35:45.227Z,55.11
2022-10-29T14:38:13.074Z,57.08
2022-10-29T14:40:39.982Z,57.31
2022-10-29T14:43:06.425Z,55.71
2022-10-29T14:45:32.892Z,58.98
2022-10-29T14:48:03.296Z,59.45
2022-10-29T14:50:30.098Z,58.09
2022-10-29T14:52:59.116Z,58.12
2022-10-29T14:55:25.710Z,58.88
2022-10-29T14:58:00.887Z,58.21
2022-10-29T15:00:30.155Z,67.25
2022-10-29T15:02:57.388Z,67.78
2022-10-29T15:05:28.748Z,69.56
2022-10-29T15:08:10.499Z,70.88
2022-10-29T15:10:50.355Z,72.92
2022-10-29T15:13:24.663Z,73.51
2022-10-29T15:15:53.253Z,73.08
2022-10-29T15:18:21.390Z,76.17
2022-10-29T15:20:47.865Z,77.46
2022-10-29T15:23:17.296Z,78.48
2022-10-29T15:25:44.635Z,74.62
2022-10-29T15:28:12.238Z,77.80
2022-10-29T15:30:38.864Z,78.69
2022-10-29T15:33:10.369Z,77.73
2022-10-29T15:35:45.108Z,77.43
2022-10-29T15:38:32.704Z,76.40
2022-10-29T15:41:19.352Z,77.01
2022-10-29T15:43:50.710Z,78.63
2022-10-29T15:46:24.804Z,78.55
2022-10-29T15:48:51.627Z,78.36
2022-10-29T15:51:19.450Z,79.64
2022-10-29T15:53:46.049Z,79.48
2022-10-29T15:56:13.196Z,80.71
2022-10-29T15:58:40.389Z,82.92
2022-10-29T16:01:07.716Z,83.49
2022-10-29T16:03:39.191Z,83.59
2022-10-29T16:06:07.504Z,82.60
2022-10-29T16:08:44.364Z,83.23
2022-10-29T16:11:12.971Z,84.01
2022-10-29T16:13:39.423Z,83.91
2022-10-29T16:16:06.873Z,83.55
2022-10-29T16:18:33.493Z,83.87
2022-10-29T16:21:01.046Z,85.03
2022-10-29T16:23:27.633Z,85.13
2022-10-29T16:25:54.080Z,85.99
2022-10-29T16:28:20.544Z,87.59
2022-10-29T16:30:49.502Z,86.59
2022-10-29T16:33:16.954Z,87.69
2022-10-29T16:35:43.369Z,87.32
2022-10-29T16:38:10.238Z,88.17
2022-10-29T16:40:36.849Z,89.33
2022-10-29T16:43:03.274Z,89.76
2022-10-29T16:45:30.344Z,88.80
2022-10-29T16:47:57.395Z,89.40
2022-10-29T16:50:25.398Z,90.22
2022-10-29T16:52:58.758Z,90.68
2022-10-29T16:55:25.548Z,90.61
2022-10-29T16:57:51.982Z,92.09
2022-10-29T17:00:18.733Z,91.76
2022-10-29T17:02:45.600Z,91.37
2022-10-29T17:05:12.629Z,91.61
2022-10-29T17:07:39.379Z,91.59
2022-10-29T17:10:06.566Z,91.87
2022-10-29T17:12:33.399Z,93.04
2022-10-29T17:14:59.801Z,94.71
2022-10-29T17:17:26.235Z,93.94
2022-10-29T17:19:53.731Z,93.08
2022-10-29T17:22:20.193Z,92.76
2022-10-29T17:24:46.596Z,92.33
2022-10-29T17:27:13.488Z,93.01
2022-10-29T17:29:40.224Z,93.60
2022-10-29T17:32:07.619Z,93.50
2022-10-29T17:34:34.202Z,93.36
2022-10-29T17:37:00.849Z,94.57
2022-10-29T17:39:27.268Z,93.82
2022-10-29T17:41:53.885Z,93.80
2022-10-29T17:44:20.361Z,92.77
2022-10-29T17:46:46.853Z,92.56
2022-10-29T17:49:13.259Z,92.97
2022-10-29T17:51:39.666Z,93.77
2022-10-29T17:54:06.099Z,94.68
2022-10-29T17:56:32.520Z,94.69
2022-10-29T17:58:59.094Z,94.33
2022-10-29T18:01:25.747Z,94.28
2022-10-29T18:03:52.264Z,94.33
2022-10-29T18:06:18.717Z,94.69
2022-10-29T18:08:45.233Z,95.44
2022-10-29T18:11:11.699Z,96.21
2022-10-29T18:13:41.339Z,96.30
2022-10-29T18:16:07.860Z,95.41
2022-10-29T18:18:48.097Z,95.20
2022-10-29T18:21:22.711Z,96.72
2022-10-29T18:23:49.247Z,97.03
2022-10-29T18:26:32.201Z,95.99
2022-10-29T18:29:00.082Z,95.75
2022-10-29T18:31:27.908Z,95.38
2022-10-29T18:33:54.888Z,95.64
2022-10-29T18:36:21.333Z,96.18
2022-10-29T18:38:55.183Z,96.35
2022-10-29T18:41:22.088Z,96.59
2022-10-29T18:43:48.500Z,96.50
2022-10-29T18:46:15.325Z,96.84
2022-10-29T18:48:42.746Z,97.27
2022-10-29T18:51:16.609Z,98.46
2022-10-29T18:53:43.355Z,97.98
2022-10-29T18:56:14.529Z,97.51
2022-10-29T18:58:40.992Z,96.27
2022-10-29T19:01:08.859Z,96.97
2022-10-29T19:03:35.793Z,96.76
2022-10-29T19:06:03.230Z,97.04
2022-10-29T19:08:29.889Z,97.04
2022-10-29T19:10:56.718Z,97.48
2022-10-29T19:13:23.244Z,98.85
2022-10-29T19:15:49.727Z,99.50
2022-10-29T19:18:16.290Z,99.41
2022-10-29T19:20:42.688Z,98.43
2022-10-29T19:23:09.142Z,97.61
2022-10-29T19:25:39.184Z,97.55
2022-10-29T19:28:05.600Z,97.42
2022-10-29T19:30:32.041Z,97.84
2022-10-29T19:33:01.151Z,99.07
2022-10-29T19:35:31.405Z,98.91
2022-10-29T19:37:58.208Z,98.66
2022-10-29T19:40:24.926Z,98.40
2022-10-29T19:42:51.324Z,98.49
2022-10-29T19:45:19.671Z,98.74
2022-10-29T19:47:46.080Z,98.21
2022-10-29T19:50:12.836Z,97.91
2022-10-29T19:52:39.417Z,99.77
2022-10-29T19:55:06.373Z,100.00
2022-10-29T19:57:32.819Z,100.00
2022-10-29T19:59:59.278Z,100.00
2022-10-29T20:02:25.725Z,99.55
2022-10-29T20:04:52.182Z,99.67
2022-10-29T20:07:18.666Z,99.86
2022-10-29T20:09:45.085Z,99.11
2022-10-29T20:12:11.498Z,98.89
2022-10-29T20:14:37.964Z,98.70
2022-10-29T20:17:04.381Z,99.18
2022-10-29T20:19:30.915Z,100.00
2022-10-29T20:21:57.373Z,100.00
2022-10-29T20:24:23.893Z,100.00
2022-10-29T20:26:50.328Z,100.00
2022-10-29T20:29:16.738Z,100.00
2022-10-29T20:31:43.246Z,98.77
2022-10-29T20:34:10.003Z,99.07
2022-10-29T20:36:36.637Z,99.10
2022-10-29T20:39:03.355Z,99.16
2022-10-29T20:41:29.888Z,99.55
2022-10-29T20:43:57.555Z,100.00
2022-10-29T20:46:24.471Z,100.00
2022-10-29T20:48:51.181Z,100.00
2022-10-29T20:51:17.601Z,100.00
2022-10-29T20:53:44.313Z,100.00
2022-10-29T20:56:14.963Z,100.00
2022-10-29T20:58:42.952Z,100.00
2022-10-29T21:01:10.890Z,99.54
2022-10-29T21:03:37.663Z,99.01
2022-10-29T21:06:04.832Z,98.83
2022-10-29T21:08:31.277Z,98.32
2022-10-29T21:11:01.206Z,99.09
2022-10-29T21:13:27.887Z,99.49
2022-10-29T21:15:54.848Z,100.00
2022-10-29T21:18:21.392Z,99.90
2022-10-29T21:20:47.895Z,99.95
2022-10-29T21:23:16.587Z,100.00
2022-10-29T21:25:51.621Z,100.00
2022-10-29T21:28:18.117Z,100.00
2022-10-29T21:30:44.589Z,100.00
2022-10-29T21:33:11.216Z,99.97
2022-10-29T21:35:37.691Z,99.75
2022-10-29T21:38:04.140Z,99.88
2022-10-29T21:40:30.626Z,100.00
2022-10-29T21:42:57.214Z,100.00
2022-10-29T21:45:23.765Z,100.00
2022-10-29T21:47:50.183Z,100.00
2022-10-29T21:50:16.860Z,100.00
2022-10-29T21:52:43.305Z,99.94
2022-10-29T21:55:09.709Z,100.00
2022-10-29T21:57:36.124Z,100.00
2022-10-29T22:00:03.272Z,99.27
2022-10-29T22:02:31.972Z,99.66
2022-10-29T22:04:58.469Z,100.00
2022-10-29T22:07:24.988Z,100.00
2022-10-29T22:09:51.414Z,100.00
2022-10-29T22:12:17.839Z,99.88
2022-10-29T22:14:44.415Z,100.00
2022-10-29T22:17:10.884Z,99.43
2022-10-29T22:19:37.306Z,99.58
2022-10-29T22:22:03.748Z,100.00
2022-10-29T22:24:32.542Z,100.00
2022-10-29T22:27:00.571Z,99.76
2022-10-29T22:29:27.684Z,99.21
2022-10-29T22:31:54.104Z,99.83
2022-10-29T22:34:20.683Z,99.79
2022-10-29T22:36:49.633Z,99.95
2022-10-29T22:39:16.089Z,100.00
2022-10-29T22:41:42.557Z,100.00
2022-10-29T22:44:09.208Z,100.00
2022-10-29T22:46:35.880Z,100.00
2022-10-29T22:49:02.524Z,99.63
2022-10-29T22:51:30.424Z,100.00
2022-10-29T22:53:57.205Z,100.00
2022-10-29T22:56:24.550Z,100.00
2022-10-29T22:58:51.096Z,100.00
2022-10-29T23:01:22.179Z,100.00
2022-10-29T23:03:49.080Z,100.00
2022-10-29T23:06:16.838Z,100.00
2022-10-29T23:08:44.520Z,100.00
2022-10-29T23:11:11.128Z,100.00
2022-10-29T23:13:37.597Z,100.00
2022-10-29T23:16:04.235Z,100.00
2022-10-29T23:18:30.676Z,100.00
2022-10-29T23:20:58.073Z,100.00
2022-10-29T23:23:24.523Z,100.00
2022-10-29T23:25:52.013Z,100.00
2022-10-29T23:28:18.499Z,100.00
2022-10-29T23:30:51.844Z,100.00
2022-10-29T23:33:18.260Z,100.00
2022-10-29T23:35:44.710Z,100.00
2022-10-29T23:38:11.184Z,100.00
2022-10-29T23:40:37.651Z,100.00
2022-10-29T23:43:04.056Z,100.00
2022-10-29T23:45:30.572Z,100.00
2022-10-29T23:47:57.208Z,100.00
2022-10-29T23:50:23.788Z,100.00
2022-10-29T23:52:50.208Z,100.00
2022-10-29T23:55:16.627Z,100.00
2022-10-29T23:57:43.072Z,100.00
